createdAt,value
2022-08-05T00:00:17.358Z,21.40
2022-08-05T00:02:51.795Z,21.50
2022-08-05T00:06:02.888Z,21.50
2022-08-05T00:08:34.094Z,21.50
2022-08-05T00:11:01.560Z,21.50
2022-08-05T00:13:39.478Z,21.40
2022-08-05T00:16:11.006Z,21.40
2022-08-05T00:18:42.184Z,21.40
2022-08-05T00:21:09.970Z,21.40
2022-08-05T00:23:45.781Z,21.40
2022-08-05T00:26:16.390Z,21.30
2022-08-05T00:28:45.817Z,21.30
2022-08-05T00:31:13.254Z,21.30
2022-08-05T00:34:55.264Z,21.20
2022-08-05T00:37:12.889Z,21.20
2022-08-05T00:39:15.094Z,21.10
2022-08-05T00:41:51.750Z,21.10
2022-08-05T00:44:30.766Z,21.00
2022-08-05T00:47:03.830Z,21.00
2022-08-05T00:49:51.045Z,21.00
2022-08-05T00:52:28.806Z,21.00
2022-08-05T00:54:56.390Z,20.90
2022-08-05T00:57:25.232Z,20.90
2022-08-05T00:59:58.830Z,20.90
2022-08-05T01:02:26.211Z,20.90
2022-08-05T01:04:53.469Z,21.00
2022-08-05T01:07:20.773Z,20.90
2022-08-05T01:09:55.532Z,20.90
2022-08-05T01:12:23.115Z,20.90
2022-08-05T01:15:05.384Z,20.90
2022-08-05T01:17:44.112Z,20.90
2022-08-05T01:20:14.351Z,20.90
2022-08-05T01:22:47.246Z,20.90
2022-08-05T01:25:41.136Z,20.90
2022-08-05T01:28:30.683Z,20.90
2022-08-05T01:31:07.192Z,20.90
2022-08-05T01:33:38.982Z,20.90
2022-08-05T01:36:13.112Z,20.90
2022-08-05T01:38:45.495Z,20.90
2022-08-05T01:41:14.484Z,20.90
2022-08-05T01:43:41.723Z,20.90
2022-08-05T01:46:16.158Z,20.90
2022-08-05T01:48:45.478Z,20.90
2022-08-05T01:51:17.929Z,20.90
2022-08-05T01:53:56.915Z,20.90
2022-08-05T01:58:29.705Z,21.00
2022-08-05T01:59:25.967Z,21.10
2022-08-05T02:01:54.757Z,21.10
2022-08-05T02:04:22.907Z,21.10
2022-08-05T02:06:51.059Z,21.20
2022-08-05T02:09:20.594Z,21.20
2022-08-05T02:11:53.156Z,21.20
2022-08-05T02:14:25.282Z,21.20
2022-08-05T02:16:54.657Z,21.20
2022-08-05T02:19:27.983Z,21.20
2022-08-05T02:22:25.884Z,21.20
2022-08-05T02:25:02.651Z,21.20
2022-08-05T02:27:57.858Z,21.10
2022-08-05T02:30:18.031Z,21.10
2022-08-05T02:32:49.539Z,21.10
2022-08-05T02:35:27.813Z,21.10
2022-08-05T02:37:55.706Z,21.00
2022-08-05T02:40:26.590Z,21.00
2022-08-05T02:42:54.819Z,21.00
2022-08-05T02:45:24.272Z,20.90
2022-08-05T02:48:06.811Z,20.90
2022-08-05T02:50:43.539Z,20.90
2022-08-05T02:53:19.023Z,20.90
2022-08-05T02:55:54.608Z,20.80
2022-08-05T02:58:27.332Z,20.80
2022-08-05T03:00:56.625Z,20.80
2022-08-05T03:03:24.074Z,20.80
2022-08-05T03:06:57.161Z,20.80
2022-08-05T03:08:42.695Z,20.70
2022-08-05T03:11:54.953Z,20.60
2022-08-05T03:14:07.910Z,20.50
2022-08-05T03:16:35.641Z,20.50
2022-08-05T03:19:13.001Z,20.50
2022-08-05T03:21:49.683Z,20.40
2022-08-05T03:24:29.396Z,20.40
2022-08-05T03:26:58.904Z,20.40
2022-08-05T03:29:45.867Z,20.40
2022-08-05T03:32:14.314Z,20.30
2022-08-05T03:34:42.624Z,20.20
2022-08-05T03:37:18.586Z,20.10
2022-08-05T03:39:58.629Z,20.00
2022-08-05T03:42:27.263Z,20.00
2022-08-05T03:44:57.015Z,20.00
2022-08-05T03:47:24.778Z,20.00
2022-08-05T03:49:52.571Z,19.90
2022-08-05T03:52:38.910Z,19.90
2022-08-05T03:56:09.850Z,19.90
2022-08-05T03:58:01.358Z,19.90
2022-08-05T04:00:31.366Z,19.90
2022-08-05T04:02:59.719Z,19.90
2022-08-05T04:05:33.254Z,19.90
2022-08-05T04:08:14.549Z,19.90
2022-08-05T04:10:53.485Z,19.90
2022-08-05T04:13:21.728Z,19.90
2022-08-05T04:16:03.114Z,19.90
2022-08-05T04:18:32.271Z,19.90
2022-08-05T04:21:01.973Z,19.90
2022-08-05T04:24:05.719Z,19.80
2022-08-05T04:26:18.561Z,19.90
2022-08-05T04:28:50.957Z,19.80
2022-08-05T04:31:19.942Z,19.80
2022-08-05T04:34:17.690Z,19.80
2022-08-05T04:36:46.144Z,19.90
2022-08-05T04:39:20.205Z,19.90
2022-08-05T04:41:48.650Z,20.00
2022-08-05T04:44:21.607Z,20.00
2022-08-05T04:46:58.460Z,20.10
2022-08-05T04:49:38.100Z,20.20
2022-08-05T04:52:14.410Z,20.20
2022-08-05T04:54:42.493Z,20.30
2022-08-05T04:57:09.758Z,20.40
2022-08-05T04:59:38.966Z,20.50
2022-08-05T05:02:41.368Z,20.50
2022-08-05T05:05:02.372Z,20.60
2022-08-05T05:07:32.456Z,20.70
2022-08-05T05:10:04.345Z,20.80
2022-08-05T05:12:32.066Z,20.80
2022-08-05T05:14:59.404Z,21.00
2022-08-05T05:17:56.929Z,21.10
2022-08-05T05:20:28.339Z,21.20
2022-08-05T05:23:03.110Z,21.20
2022-08-05T05:25:41.063Z,21.30
2022-08-05T05:28:09.391Z,21.40
2022-08-05T05:30:37.396Z,21.60
2022-08-05T05:33:15.851Z,21.60
2022-08-05T05:35:47.918Z,21.70
2022-08-05T05:38:22.497Z,21.90
2022-08-05T05:40:55.981Z,22.10
2022-08-05T05:43:54.810Z,22.30
2022-08-05T05:46:17.648Z,22.40
2022-08-05T05:48:48.392Z,22.60
2022-08-05T05:51:23.197Z,22.80
2022-08-05T05:53:57.381Z,22.90
2022-08-05T05:56:32.602Z,23.00
2022-08-05T05:59:07.622Z,23.20
2022-08-05T06:01:38.040Z,23.30
2022-08-05T06:04:07.304Z,23.50
2022-08-05T06:06:35.329Z,23.60
2022-08-05T06:09:05.998Z,23.70
2022-08-05T06:11:34.939Z,23.80
2022-08-05T06:14:06.546Z,24.00
2022-08-05T06:16:37.354Z,24.00
2022-08-05T06:19:07.456Z,24.10
2022-08-05T06:21:38.376Z,24.10
2022-08-05T06:24:11.217Z,24.10
2022-08-05T06:26:51.714Z,24.10
2022-08-05T06:29:25.207Z,24.20
2022-08-05T06:32:20.972Z,24.30
2022-08-05T06:34:54.107Z,24.30
2022-08-05T06:37:56.546Z,24.40
2022-08-05T06:40:17.830Z,24.50
2022-08-05T06:42:52.011Z,24.60
2022-08-05T06:45:45.070Z,24.70
2022-08-05T06:48:36.742Z,24.70
2022-08-05T06:50:56.438Z,24.80
2022-08-05T06:53:27.865Z,24.90
2022-08-05T06:55:59.099Z,24.90
2022-08-05T06:58:35.266Z,25.00
2022-08-05T07:01:07.184Z,25.10
2022-08-05T07:03:34.681Z,25.20
2022-08-05T07:06:05.786Z,25.30
2022-08-05T07:08:47.201Z,25.30
2022-08-05T07:11:16.020Z,25.30
2022-08-05T07:14:02.335Z,25.40
2022-08-05T07:17:56.545Z,25.40
2022-08-05T07:22:29.047Z,25.40
2022-08-05T07:25:09.512Z,25.40
2022-08-05T07:27:58.526Z,25.40
2022-08-05T07:30:34.441Z,25.40
2022-08-05T07:33:05.479Z,25.40
2022-08-05T07:36:02.309Z,25.40
2022-08-05T07:38:33.428Z,25.30
2022-08-05T07:41:34.969Z,25.20
2022-08-05T07:43:51.545Z,25.20
2022-08-05T07:46:25.304Z,25.20
2022-08-05T07:49:02.124Z,25.20
2022-08-05T07:51:40.849Z,25.20
2022-08-05T07:54:23.291Z,25.20
2022-08-05T07:57:01.414Z,25.20
2022-08-05T07:59:41.485Z,25.20
2022-08-05T08:02:15.475Z,25.20
2022-08-05T08:04:46.390Z,25.30
2022-08-05T08:07:14.009Z,25.20
2022-08-05T08:09:43.534Z,25.20
2022-08-05T08:12:37.319Z,25.30
2022-08-05T08:15:01.162Z,25.40
2022-08-05T08:17:30.618Z,25.50
2022-08-05T08:20:22.440Z,25.60
2022-08-05T08:22:51.422Z,25.80
2022-08-05T08:25:26.831Z,25.90
2022-08-05T08:28:06.695Z,26.00
2022-08-05T08:30:47.409Z,26.10
2022-08-05T08:33:17.595Z,26.10
2022-08-05T08:35:52.729Z,26.10
2022-08-05T08:38:35.689Z,26.10
2022-08-05T08:41:07.068Z,26.20
2022-08-05T08:45:19.143Z,26.30
2022-08-05T08:46:22.643Z,26.30
2022-08-05T08:49:06.296Z,26.40
2022-08-05T08:52:05.887Z,26.40
2022-08-05T08:54:27.298Z,26.30
2022-08-05T08:56:56.562Z,26.30
2022-08-05T08:59:27.496Z,26.40
2022-08-05T09:02:01.409Z,26.40
2022-08-05T09:04:30.680Z,26.40
2022-08-05T09:06:58.707Z,26.40
2022-08-05T09:09:34.778Z,26.40
2022-08-05T09:12:19.882Z,26.40
2022-08-05T09:14:59.202Z,26.40
2022-08-05T09:17:42.377Z,26.50
2022-08-05T09:20:13.219Z,26.50
2022-08-05T09:23:27.322Z,26.60
2022-08-05T09:26:20.734Z,26.60
2022-08-05T09:28:49.507Z,26.70
2022-08-05T09:31:23.307Z,26.70
2022-08-05T09:34:07.000Z,26.80
2022-08-05T09:36:45.806Z,26.90
2022-08-05T09:39:27.567Z,27.00
2022-08-05T09:42:23.472Z,27.10
2022-08-05T09:44:56.359Z,27.10
2022-08-05T09:47:46.572Z,27.20
2022-08-05T09:50:18.263Z,27.30
2022-08-05T09:53:02.207Z,27.40
2022-08-05T09:55:58.716Z,27.50
2022-08-05T09:58:22.715Z,27.60
2022-08-05T10:00:59.160Z,27.70
2022-08-05T10:03:38.680Z,27.80
2022-08-05T10:06:15.500Z,27.90
2022-08-05T10:08:43.310Z,27.90
2022-08-05T10:11:21.366Z,27.90
2022-08-05T10:13:54.758Z,27.90
2022-08-05T10:16:52.472Z,27.90
2022-08-05T10:19:23.660Z,27.90
2022-08-05T10:21:59.370Z,27.70
2022-08-05T10:24:26.972Z,27.70
2022-08-05T10:27:00.229Z,27.70
2022-08-05T10:30:06.967Z,27.70
2022-08-05T10:32:53.400Z,27.70
2022-08-05T10:35:07.145Z,27.90
2022-08-05T10:37:40.363Z,28.00
2022-08-05T10:40:29.081Z,28.10
2022-08-05T10:43:35.775Z,28.30
2022-08-05T10:46:08.207Z,28.40
2022-08-05T10:48:52.508Z,28.50
2022-08-05T10:51:28.748Z,28.50
2022-08-05T10:53:58.486Z,28.50
2022-08-05T10:56:29.457Z,28.50
2022-08-05T10:59:06.958Z,28.50
2022-08-05T11:01:55.290Z,28.60
2022-08-05T11:04:31.786Z,28.70
2022-08-05T11:07:06.406Z,28.80
2022-08-05T11:09:46.583Z,28.90
2022-08-05T11:12:26.926Z,29.00
2022-08-05T11:15:20.379Z,29.10
2022-08-05T11:18:00.520Z,29.10
2022-08-05T11:20:41.500Z,29.10
2022-08-05T11:23:56.894Z,29.10
2022-08-05T11:26:28.076Z,29.20
2022-08-05T11:29:06.714Z,29.30
2022-08-05T11:31:54.492Z,29.30
2022-08-05T11:34:39.004Z,29.30
2022-08-05T11:38:30.057Z,29.40
2022-08-05T11:40:00.593Z,29.50
2022-08-05T11:42:37.787Z,29.50
2022-08-05T11:45:23.418Z,29.40
2022-08-05T11:47:55.460Z,29.30
2022-08-05T11:50:23.006Z,29.20
2022-08-05T11:52:57.692Z,29.20
2022-08-05T11:55:32.105Z,29.10
2022-08-05T11:58:08.301Z,29.10
2022-08-05T12:00:41.386Z,29.00
2022-08-05T12:03:24.078Z,29.00
2022-08-05T12:06:06.193Z,29.10
2022-08-05T12:08:40.527Z,29.20
2022-08-05T12:11:24.833Z,29.20
2022-08-05T12:14:04.033Z,29.20
2022-08-05T12:16:38.266Z,29.20
2022-08-05T12:19:08.191Z,29.20
2022-08-05T12:21:43.253Z,29.00
2022-08-05T12:24:14.065Z,28.90
2022-08-05T12:26:44.654Z,28.80
2022-08-05T12:29:23.499Z,28.80
2022-08-05T12:31:53.448Z,28.70
2022-08-05T12:34:32.529Z,28.70
2022-08-05T12:37:21.797Z,28.60
2022-08-05T12:39:51.546Z,28.50
2022-08-05T12:42:19.883Z,28.40
2022-08-05T12:44:47.556Z,28.40
2022-08-05T12:47:30.565Z,28.30
2022-08-05T12:50:03.630Z,28.30
2022-08-05T12:52:38.768Z,28.30
2022-08-05T12:55:23.918Z,28.30
2022-08-05T12:58:51.342Z,28.40
2022-08-05T13:02:00.180Z,28.50
2022-08-05T13:03:32.455Z,28.70
2022-08-05T13:06:01.549Z,28.70
2022-08-05T13:08:32.882Z,28.70
2022-08-05T13:11:04.065Z,28.80
2022-08-05T13:14:04.639Z,28.80
2022-08-05T13:16:20.206Z,28.80
2022-08-05T13:18:57.932Z,28.80
2022-08-05T13:21:27.862Z,28.80
2022-08-05T13:23:55.931Z,28.80
2022-08-05T13:26:30.247Z,29.00
2022-08-05T13:28:59.306Z,29.20
2022-08-05T13:32:03.338Z,29.20
2022-08-05T13:34:24.169Z,29.30
2022-08-05T13:36:56.000Z,29.20
2022-08-05T13:39:24.613Z,29.20
2022-08-05T13:42:14.318Z,29.20
2022-08-05T13:44:46.283Z,29.20
2022-08-05T13:47:34.623Z,29.30
2022-08-05T13:50:04.407Z,29.50
2022-08-05T13:52:35.229Z,29.70
2022-08-05T13:55:07.269Z,29.80
2022-08-05T13:57:50.900Z,29.70
2022-08-05T14:00:26.960Z,29.70
2022-08-05T14:02:58.238Z,29.70
2022-08-05T14:05:48.107Z,29.60
2022-08-05T14:08:20.756Z,29.60
2022-08-05T14:11:08.085Z,29.60
2022-08-05T14:13:42.721Z,29.70
2022-08-05T14:16:11.567Z,29.80
2022-08-05T14:18:44.217Z,29.80
2022-08-05T14:22:08.681Z,29.80
2022-08-05T14:24:00.710Z,29.90
2022-08-05T14:26:35.514Z,29.90
2022-08-05T14:29:06.406Z,29.90
2022-08-05T14:32:03.641Z,30.10
2022-08-05T14:34:35.393Z,30.10
2022-08-05T14:37:04.432Z,30.20
2022-08-05T14:39:49.288Z,30.30
2022-08-05T14:42:20.937Z,30.30
2022-08-05T14:44:49.148Z,30.30
2022-08-05T14:47:16.482Z,30.30
2022-08-05T14:50:17.775Z,30.30
2022-08-05T14:52:57.802Z,30.20
2022-08-05T14:55:38.392Z,30.10
2022-08-05T14:58:11.691Z,30.00
2022-08-05T15:00:58.387Z,29.90
2022-08-05T15:03:33.685Z,29.90
2022-08-05T15:06:07.576Z,29.80
2022-08-05T15:09:01.146Z,29.80
2022-08-05T15:11:51.573Z,29.80
2022-08-05T15:14:20.156Z,29.80
2022-08-05T15:17:04.284Z,29.70
2022-08-05T15:19:32.337Z,29.70
2022-08-05T15:22:01.213Z,29.70
2022-08-05T15:24:29.103Z,29.70
2022-08-05T15:26:57.012Z,29.60
2022-08-05T15:29:29.807Z,29.60
2022-08-05T15:32:03.081Z,29.60
2022-08-05T15:34:32.950Z,29.60
2022-08-05T15:37:06.296Z,29.50
2022-08-05T15:40:58.662Z,29.50
2022-08-05T15:42:53.514Z,29.50
2022-08-05T15:45:16.433Z,29.40
2022-08-05T15:47:46.315Z,29.40
2022-08-05T15:50:15.783Z,29.30
2022-08-05T15:52:54.155Z,29.20
2022-08-05T15:55:25.159Z,29.20
2022-08-05T15:58:16.398Z,29.10
2022-08-05T16:00:50.806Z,29.10
2022-08-05T16:03:32.635Z,29.10
2022-08-05T16:06:01.230Z,29.10
2022-08-05T16:08:30.681Z,29.10
2022-08-05T16:10:58.743Z,29.10
2022-08-05T16:13:34.126Z,29.10
2022-08-05T16:16:03.363Z,29.10
2022-08-05T16:18:32.892Z,29.10
2022-08-05T16:21:03.926Z,29.00
2022-08-05T16:23:32.981Z,29.00
2022-08-05T16:26:20.067Z,28.90
2022-08-05T16:28:54.415Z,28.80
2022-08-05T16:31:21.988Z,28.80
2022-08-05T16:33:49.726Z,28.70
2022-08-05T16:36:20.226Z,28.70
2022-08-05T16:38:54.986Z,28.70
2022-08-05T16:42:14.084Z,28.80
2022-08-05T16:44:12.617Z,28.80
2022-08-05T16:46:41.186Z,28.70
2022-08-05T16:49:09.148Z,28.70
2022-08-05T16:51:50.406Z,28.60
2022-08-05T16:54:28.675Z,28.60
2022-08-05T16:56:59.272Z,28.60
2022-08-05T16:59:27.910Z,28.50
2022-08-05T17:01:58.185Z,28.40
2022-08-05T17:04:27.757Z,28.40
2022-08-05T17:06:59.992Z,28.40
2022-08-05T17:09:29.759Z,28.40
2022-08-05T17:11:59.466Z,28.40
2022-08-05T17:14:37.036Z,28.40
2022-08-05T17:17:06.731Z,28.30
2022-08-05T17:19:43.788Z,28.30
2022-08-05T17:22:17.775Z,28.20
2022-08-05T17:24:57.042Z,28.20
2022-08-05T17:27:33.839Z,28.10
2022-08-05T17:30:03.436Z,28.10
2022-08-05T17:32:32.146Z,28.10
2022-08-05T17:35:01.243Z,28.10
2022-08-05T17:37:40.578Z,28.00
2022-08-05T17:40:17.228Z,28.00
2022-08-05T17:42:49.755Z,28.00
2022-08-05T17:45:23.014Z,28.00
2022-08-05T17:47:55.315Z,27.90
2022-08-05T17:50:28.934Z,27.80
2022-08-05T17:53:01.454Z,27.80
2022-08-05T17:55:37.735Z,27.80
2022-08-05T17:58:12.782Z,27.80
2022-08-05T18:00:47.036Z,27.80
2022-08-05T18:06:05.924Z,27.70
2022-08-05T18:08:38.855Z,27.60
2022-08-05T18:11:11.412Z,27.50
2022-08-05T18:13:52.184Z,27.50
2022-08-05T18:16:20.358Z,27.40
2022-08-05T18:18:50.160Z,27.30
2022-08-05T18:21:21.090Z,27.30
2022-08-05T18:23:53.717Z,27.20
2022-08-05T18:26:27.683Z,27.10
2022-08-05T18:28:57.234Z,27.00
2022-08-05T18:31:24.666Z,26.90
2022-08-05T18:33:52.279Z,26.80
2022-08-05T18:36:19.695Z,26.70
2022-08-05T18:38:55.674Z,26.60
2022-08-05T18:41:57.397Z,26.50
2022-08-05T18:44:10.858Z,26.50
2022-08-05T18:46:41.127Z,26.50
2022-08-05T18:49:30.409Z,26.40
2022-08-05T18:52:16.903Z,26.40
2022-08-05T18:54:48.732Z,26.40
2022-08-05T18:57:17.969Z,26.30
2022-08-05T19:00:02.495Z,26.30
2022-08-05T19:02:31.662Z,26.30
2022-08-05T19:05:03.012Z,26.20
2022-08-05T19:07:50.103Z,26.20
2022-08-05T19:10:17.587Z,26.20
2022-08-05T19:12:46.275Z,26.30
2022-08-05T19:15:58.229Z,26.40
2022-08-05T19:18:09.510Z,26.40
2022-08-05T19:20:41.654Z,26.30
2022-08-05T19:24:04.434Z,26.20
2022-08-05T19:26:01.753Z,26.20
2022-08-05T19:28:34.637Z,26.00
2022-08-05T19:31:06.079Z,25.50
2022-08-05T19:33:36.878Z,24.80
2022-08-05T19:36:09.077Z,23.60
2022-08-05T19:38:36.850Z,22.50
2022-08-05T19:41:07.394Z,21.70
2022-08-05T19:44:04.816Z,21.10
2022-08-05T19:46:30.191Z,20.60
2022-08-05T19:49:00.837Z,20.10
2022-08-05T19:51:56.330Z,19.80
2022-08-05T19:54:26.667Z,19.50
2022-08-05T19:57:06.669Z,19.30
2022-08-05T19:59:59.287Z,19.10
2022-08-05T20:02:27.716Z,19.00
2022-08-05T20:04:58.671Z,19.00
2022-08-05T20:07:46.514Z,19.00
2022-08-05T20:10:14.902Z,19.00
2022-08-05T20:12:46.090Z,19.10
2022-08-05T20:15:48.529Z,19.10
2022-08-05T20:18:10.115Z,19.00
2022-08-05T20:20:55.017Z,19.10
2022-08-05T20:23:39.225Z,19.10
2022-08-05T20:26:16.263Z,19.10
2022-08-05T20:28:51.377Z,19.10
2022-08-05T20:31:21.770Z,19.10
2022-08-05T20:33:50.850Z,19.20
2022-08-05T20:36:18.304Z,19.20
2022-08-05T20:38:54.282Z,19.30
2022-08-05T20:41:27.059Z,19.30
2022-08-05T20:44:18.397Z,19.30
2022-08-05T20:46:47.788Z,19.40
2022-08-05T20:49:24.148Z,19.50
2022-08-05T20:51:55.090Z,19.50
2022-08-05T20:54:24.715Z,19.60
2022-08-05T20:56:53.073Z,19.60
2022-08-05T20:59:26.874Z,19.70
2022-08-05T21:02:08.687Z,19.60
2022-08-05T21:04:36.724Z,19.60
2022-08-05T21:07:08.210Z,19.50
2022-08-05T21:09:36.250Z,19.50
2022-08-05T21:12:09.373Z,19.50
2022-08-05T21:14:38.824Z,19.50
2022-08-05T21:17:06.414Z,19.40
2022-08-05T21:19:46.864Z,19.40
2022-08-05T21:22:18.636Z,19.40
2022-08-05T21:24:51.941Z,19.40
2022-08-05T21:27:24.962Z,19.30
2022-08-05T21:29:55.968Z,19.30
2022-08-05T21:32:26.560Z,19.30
2022-08-05T21:35:16.695Z,19.20
2022-08-05T21:37:52.698Z,19.20
2022-08-05T21:40:25.418Z,19.20
2022-08-05T21:42:53.896Z,19.20
2022-08-05T21:45:24.929Z,19.30
2022-08-05T21:48:06.569Z,19.30
2022-08-05T21:50:37.274Z,19.40
2022-08-05T21:53:16.247Z,19.40
2022-08-05T21:56:06.397Z,19.30
2022-08-05T21:58:32.540Z,19.20
2022-08-05T22:00:59.978Z,19.20
2022-08-05T22:03:53.226Z,19.10
2022-08-05T22:06:16.217Z,19.10
2022-08-05T22:08:51.865Z,18.90
2022-08-05T22:11:35.169Z,18.80
2022-08-05T22:14:34.176Z,18.60
2022-08-05T22:16:53.040Z,18.50
2022-08-05T22:20:02.641Z,18.40
2022-08-05T22:22:11.236Z,18.40
2022-08-05T22:24:58.071Z,18.40
2022-08-05T22:28:09.537Z,18.40
2022-08-05T22:30:32.251Z,18.40
2022-08-05T22:33:03.694Z,18.40
2022-08-05T22:35:48.844Z,18.50
2022-08-05T22:38:18.877Z,18.40
2022-08-05T22:40:50.128Z,18.40
2022-08-05T22:43:37.066Z,18.40
2022-08-05T22:46:13.588Z,18.40
2022-08-05T22:48:50.869Z,18.40
2022-08-05T22:51:23.164Z,18.40
2022-08-05T22:53:57.333Z,18.40
2022-08-05T22:56:30.029Z,18.40
2022-08-05T22:59:00.001Z,18.40
2022-08-05T23:01:50.918Z,18.40
2022-08-05T23:04:19.930Z,18.40
2022-08-05T23:06:47.672Z,18.50
2022-08-05T23:09:27.687Z,18.50
2022-08-05T23:12:02.954Z,18.50
2022-08-05T23:14:32.085Z,18.50
2022-08-05T23:17:24.276Z,18.50
2022-08-05T23:19:56.588Z,18.50
2022-08-05T23:22:27.413Z,18.60
2022-08-05T23:24:55.097Z,18.70
2022-08-05T23:27:22.570Z,18.70
2022-08-05T23:29:50.685Z,18.70
2022-08-05T23:32:22.677Z,18.80
2022-08-05T23:34:50.835Z,18.80
2022-08-05T23:37:18.313Z,18.70
2022-08-05T23:39:54.377Z,18.60
2022-08-05T23:42:29.641Z,18.60
2022-08-05T23:44:57.328Z,18.50
2022-08-05T23:47:24.943Z,18.50
2022-08-05T23:49:55.643Z,18.40
2022-08-05T23:52:27.187Z,18.40
2022-08-05T23:54:59.922Z,18.30
2022-08-05T23:57:28.036Z,18.20
